Wasagaming, Canada
Current Conditions -  °F | °C
As of 2:42 AM on Thursday 18 Dec 2014 (Local Time) from CYDN Reporting Station
Haze Haze  
Wind Chill: -2°   Ceiling: Unl
Heat Index: -2°   Visibility: 6mi
Dew Point: -6°   Wind: 0mph
Humidity: 85%   Direction: NA
Pressure: 30.17"   Gusts: NA
Location:  50.65°N, 99.97°W
Report Text: CYDN 180842Z AUTO 00000KT 6SM BR CLR M19/M21 A3017 RMK SLP245
Loading
Personal Weather Stations






























Interactive Weather Map New forecast layout! Learn more

10-Day Weather Forecast

Advertisements
Track Severe Weather on mobile